createdAt,value
2023-03-17T00:01:54.556Z,24.45
2023-03-17T00:04:24.516Z,25.25
2023-03-17T00:06:53.268Z,24.13
2023-03-17T00:09:22.294Z,29.02
2023-03-17T00:11:50.320Z,29.70
2023-03-17T00:14:19.736Z,26.50
2023-03-17T00:16:52.817Z,27.95
2023-03-17T00:19:35.321Z,28.80
2023-03-17T00:22:06.185Z,27.17
2023-03-17T00:24:34.552Z,27.73
2023-03-17T00:27:02.715Z,25.35
2023-03-17T00:29:31.552Z,29.10
2023-03-17T00:31:59.934Z,25.88
2023-03-17T00:36:57.423Z,31.38
2023-03-17T00:39:25.568Z,32.03
2023-03-17T00:41:55.250Z,30.63
2023-03-17T00:44:22.732Z,31.60
2023-03-17T00:46:54.266Z,33.97
2023-03-17T00:49:24.112Z,30.13
2023-03-17T00:51:52.791Z,34.35
2023-03-17T00:54:23.019Z,33.33
2023-03-17T00:56:52.738Z,33.20
2023-03-17T00:59:42.840Z,31.95
2023-03-17T01:02:13.264Z,35.45
2023-03-17T01:07:15.945Z,34.63
2023-03-17T01:09:45.232Z,34.33
2023-03-17T01:12:14.218Z,32.05
2023-03-17T01:14:43.730Z,35.00
2023-03-17T01:17:18.404Z,34.60
2023-03-17T01:19:47.977Z,36.88
2023-03-17T01:22:15.692Z,35.85
2023-03-17T01:24:43.324Z,38.40
2023-03-17T01:27:11.603Z,35.88
2023-03-17T01:29:39.490Z,35.70
2023-03-17T01:32:07.340Z,31.90
2023-03-17T01:34:35.222Z,30.40
2023-03-17T01:37:02.869Z,36.08
2023-03-17T01:39:30.631Z,33.20
2023-03-17T01:42:18.830Z,37.97
2023-03-17T01:45:37.325Z,34.47
2023-03-17T01:48:05.031Z,36.42
2023-03-17T01:50:34.932Z,28.98
2023-03-17T01:53:03.510Z,32.63
2023-03-17T01:55:31.637Z,34.45
2023-03-17T01:57:59.855Z,34.00
2023-03-17T02:00:27.704Z,34.15
2023-03-17T02:02:57.189Z,34.88
2023-03-17T02:05:27.682Z,38.17
2023-03-17T02:07:56.260Z,28.63
2023-03-17T02:10:33.642Z,32.25
2023-03-17T02:13:05.581Z,39.75
2023-03-17T02:15:40.438Z,38.83
2023-03-17T02:18:09.807Z,30.20
2023-03-17T02:20:37.605Z,35.03
2023-03-17T02:23:07.558Z,36.63
2023-03-17T02:25:36.934Z,39.85
2023-03-17T02:28:10.969Z,39.65
2023-03-17T02:30:40.596Z,34.58
2023-03-17T02:33:12.406Z,35.47
2023-03-17T02:35:42.400Z,40.75
2023-03-17T02:38:10.908Z,40.75
2023-03-17T02:40:38.475Z,30.33
2023-03-17T02:43:07.324Z,40.80
2023-03-17T02:45:34.913Z,39.10
2023-03-17T02:48:07.299Z,35.28
2023-03-17T02:50:34.916Z,39.50
2023-03-17T02:53:02.411Z,38.80
2023-03-17T02:55:30.294Z,33.03
2023-03-17T02:57:58.280Z,33.90
2023-03-17T03:00:26.578Z,33.38
2023-03-17T03:02:54.870Z,33.65
2023-03-17T03:05:24.088Z,31.67
2023-03-17T03:07:53.456Z,29.77
2023-03-17T03:10:21.508Z,32.53
2023-03-17T03:12:53.352Z,29.30
2023-03-17T03:15:21.599Z,34.30
2023-03-17T03:17:50.604Z,35.55
2023-03-17T03:20:21.438Z,31.48
2023-03-17T03:22:49.268Z,32.15
2023-03-17T03:25:17.217Z,28.48
2023-03-17T03:27:46.791Z,37.38
2023-03-17T03:30:14.669Z,35.42
2023-03-17T03:32:44.066Z,36.40
2023-03-17T03:35:11.732Z,34.08
2023-03-17T03:37:39.585Z,39.25
2023-03-17T03:40:07.709Z,36.67
2023-03-17T03:42:35.552Z,40.75
2023-03-17T03:45:03.203Z,37.00
2023-03-17T03:47:31.203Z,37.05
2023-03-17T03:50:00.176Z,38.90
2023-03-17T03:52:27.829Z,35.40
2023-03-17T03:54:55.768Z,35.65
2023-03-17T03:57:23.210Z,30.90
2023-03-17T03:59:51.131Z,30.98
2023-03-17T04:02:18.720Z,29.77
2023-03-17T04:04:47.038Z,36.00
2023-03-17T04:07:14.817Z,30.40
2023-03-17T04:09:42.618Z,34.17
2023-03-17T04:12:10.540Z,39.40
2023-03-17T04:14:38.260Z,33.78
2023-03-17T04:17:06.260Z,28.35
2023-03-17T04:19:33.953Z,32.78
2023-03-17T04:22:05.410Z,33.38
2023-03-17T04:24:34.778Z,33.40
2023-03-17T04:27:04.878Z,32.88
2023-03-17T04:29:36.481Z,36.00
2023-03-17T04:32:04.863Z,30.83
2023-03-17T04:34:34.967Z,36.35
2023-03-17T04:37:02.591Z,29.95
2023-03-17T04:39:33.791Z,37.42
2023-03-17T04:42:01.562Z,40.60
2023-03-17T04:44:29.652Z,44.92
2023-03-17T04:46:59.452Z,35.97
2023-03-17T04:49:28.173Z,36.60
2023-03-17T04:51:55.856Z,35.22
2023-03-17T04:54:24.767Z,44.50
2023-03-17T04:56:52.660Z,38.97
2023-03-17T04:59:20.341Z,36.53
2023-03-17T05:01:48.035Z,42.90
2023-03-17T05:04:28.862Z,39.80
2023-03-17T05:06:58.610Z,40.58
2023-03-17T05:09:28.726Z,44.28
2023-03-17T05:11:58.940Z,41.95
2023-03-17T05:14:26.794Z,37.95
2023-03-17T05:16:54.405Z,41.45
2023-03-17T05:19:23.560Z,41.75
2023-03-17T05:21:51.641Z,43.72
2023-03-17T05:24:19.207Z,40.83
2023-03-17T05:26:47.207Z,35.38
2023-03-17T05:29:14.771Z,45.88
2023-03-17T05:31:44.984Z,46.90
2023-03-17T05:34:12.654Z,46.28
2023-03-17T05:36:40.271Z,44.83
2023-03-17T05:39:07.821Z,50.92
2023-03-17T05:41:36.315Z,46.70
2023-03-17T05:44:05.917Z,53.35
2023-03-17T05:46:37.927Z,39.15
2023-03-17T05:49:07.706Z,47.05
2023-03-17T05:51:37.057Z,47.22
2023-03-17T05:54:05.155Z,37.20
2023-03-17T05:56:34.989Z,48.53
2023-03-17T05:59:04.714Z,48.17
2023-03-17T06:01:32.483Z,39.95
2023-03-17T06:04:01.829Z,43.10
2023-03-17T06:08:57.110Z,46.80
2023-03-17T06:11:24.591Z,45.97
2023-03-17T06:13:58.173Z,49.60
2023-03-17T06:16:25.875Z,46.05
2023-03-17T06:18:53.376Z,41.85
2023-03-17T06:21:21.402Z,40.10
2023-03-17T06:23:49.024Z,42.75
2023-03-17T06:26:16.843Z,47.92
2023-03-17T06:28:44.451Z,37.53
2023-03-17T06:31:12.112Z,35.85
2023-03-17T06:33:39.781Z,37.35
2023-03-17T06:36:08.263Z,39.15
2023-03-17T06:38:36.171Z,42.70
2023-03-17T06:41:04.889Z,40.70
2023-03-17T06:43:32.707Z,35.33
2023-03-17T06:46:04.476Z,36.42
2023-03-17T06:48:32.202Z,39.20
2023-03-17T06:51:00.852Z,35.83
2023-03-17T06:53:28.452Z,35.83
2023-03-17T06:55:56.445Z,37.10
2023-03-17T06:58:24.988Z,36.83
2023-03-17T07:00:54.219Z,38.72
2023-03-17T07:03:22.543Z,39.67
2023-03-17T07:05:50.141Z,35.63
2023-03-17T07:08:18.079Z,36.60
2023-03-17T07:10:45.993Z,40.80
2023-03-17T07:13:17.957Z,38.28
2023-03-17T07:15:45.744Z,37.65
2023-03-17T07:18:13.618Z,38.17
2023-03-17T07:20:41.617Z,44.13
2023-03-17T07:23:29.231Z,43.83
2023-03-17T07:25:59.935Z,44.15
2023-03-17T07:28:27.552Z,39.80
2023-03-17T07:30:57.893Z,44.10
2023-03-17T07:33:25.896Z,40.60
2023-03-17T07:35:56.558Z,44.25
2023-03-17T07:38:24.172Z,48.17
2023-03-17T07:40:53.166Z,41.30
2023-03-17T07:43:22.633Z,48.80
2023-03-17T07:45:50.199Z,46.17
2023-03-17T07:48:19.171Z,40.17
2023-03-17T07:50:47.962Z,40.63
2023-03-17T07:53:15.599Z,41.00
2023-03-17T07:55:44.715Z,40.70
2023-03-17T07:58:15.180Z,43.28
2023-03-17T08:00:48.700Z,40.85
2023-03-17T08:03:16.985Z,43.53
2023-03-17T08:05:45.630Z,42.13
2023-03-17T08:08:22.205Z,43.47
2023-03-17T08:10:50.887Z,39.88
2023-03-17T08:13:18.901Z,40.78
2023-03-17T08:15:47.214Z,40.53
2023-03-17T08:18:14.943Z,39.83
2023-03-17T08:20:42.539Z,37.10
2023-03-17T08:23:10.704Z,37.20
2023-03-17T08:25:39.582Z,36.60
2023-03-17T08:28:08.047Z,34.63
2023-03-17T08:33:06.459Z,33.97
2023-03-17T08:35:37.402Z,32.35
2023-03-17T08:38:05.146Z,30.90
2023-03-17T08:40:32.728Z,38.47
2023-03-17T08:43:00.534Z,32.47
2023-03-17T08:45:29.007Z,31.63
2023-03-17T08:47:58.524Z,30.00
2023-03-17T08:50:27.087Z,31.00
2023-03-17T08:52:55.169Z,31.20
2023-03-17T08:55:22.898Z,30.52
2023-03-17T08:57:50.528Z,29.67
2023-03-17T09:00:23.352Z,29.58
2023-03-17T09:02:51.246Z,30.08
2023-03-17T09:05:19.610Z,31.52
2023-03-17T09:07:50.106Z,30.25
2023-03-17T09:10:22.658Z,31.45
2023-03-17T09:12:51.838Z,26.60
2023-03-17T09:15:22.418Z,29.42
2023-03-17T09:17:50.115Z,25.77
2023-03-17T09:20:17.768Z,28.95
2023-03-17T09:22:47.800Z,27.73
2023-03-17T09:25:16.727Z,29.27
2023-03-17T09:27:48.249Z,28.85
2023-03-17T09:30:19.452Z,26.95
2023-03-17T09:32:47.137Z,26.90
2023-03-17T09:35:15.297Z,27.83
2023-03-17T09:37:42.795Z,27.85
2023-03-17T09:40:17.231Z,23.13
2023-03-17T09:42:56.743Z,28.73
2023-03-17T09:45:33.648Z,26.50
2023-03-17T09:48:39.088Z,26.33
2023-03-17T09:51:13.170Z,28.30
2023-03-17T09:53:49.481Z,23.33
2023-03-17T09:56:20.042Z,30.27
2023-03-17T09:58:52.948Z,26.48
2023-03-17T10:01:22.887Z,24.98
2023-03-17T10:03:51.694Z,25.90
2023-03-17T10:06:42.765Z,26.20
2023-03-17T10:09:33.811Z,28.23
2023-03-17T10:12:15.359Z,25.30
2023-03-17T10:15:00.716Z,23.85
2023-03-17T10:17:34.503Z,25.67
2023-03-17T10:20:11.978Z,20.77
2023-03-17T10:22:54.821Z,23.08
2023-03-17T10:25:26.399Z,23.42
2023-03-17T10:28:01.996Z,23.30
2023-03-17T10:30:33.822Z,23.63
2023-03-17T10:33:05.002Z,23.27
2023-03-17T10:35:36.469Z,23.77
2023-03-17T10:38:23.379Z,22.90
2023-03-17T10:41:03.568Z,22.42
2023-03-17T10:43:46.026Z,23.17
2023-03-17T10:46:25.233Z,22.77
2023-03-17T10:49:02.245Z,21.08
2023-03-17T10:51:37.405Z,24.70
2023-03-17T10:54:19.974Z,21.08
2023-03-17T10:56:50.392Z,23.05
2023-03-17T11:04:39.967Z,25.55
2023-03-17T11:07:40.916Z,23.55
2023-03-17T11:10:26.871Z,23.65
2023-03-17T11:13:00.436Z,26.50
2023-03-17T11:15:38.014Z,23.70
2023-03-17T11:18:33.285Z,24.48
2023-03-17T11:21:10.330Z,24.35
2023-03-17T11:23:47.204Z,24.73
2023-03-17T11:26:39.342Z,22.85
2023-03-17T11:29:32.654Z,22.15
2023-03-17T11:32:39.008Z,25.42
2023-03-17T11:35:15.400Z,17.50
2023-03-17T11:38:12.435Z,21.08
2023-03-17T11:41:24.441Z,18.98
2023-03-17T11:44:21.316Z,18.58
2023-03-17T11:47:15.124Z,17.02
2023-03-17T11:49:46.056Z,19.38
2023-03-17T11:52:14.746Z,17.10
2023-03-17T11:54:59.679Z,18.65
2023-03-17T11:57:27.580Z,18.90
2023-03-17T12:00:07.784Z,21.17
2023-03-17T12:02:47.702Z,18.85
2023-03-17T12:05:30.120Z,18.20
2023-03-17T12:08:25.073Z,21.80
2023-03-17T12:10:56.655Z,20.38
2023-03-17T12:13:43.016Z,17.45
2023-03-17T12:16:32.114Z,18.23
2023-03-17T12:19:37.807Z,19.83
2023-03-17T12:22:36.589Z,19.30
2023-03-17T12:25:20.880Z,20.77
2023-03-17T12:28:00.819Z,19.02
2023-03-17T12:30:37.319Z,20.10
2023-03-17T12:33:17.121Z,18.05
2023-03-17T12:35:45.589Z,20.23
2023-03-17T12:38:40.920Z,20.80
2023-03-17T12:41:31.567Z,19.63
2023-03-17T12:44:03.171Z,21.52
2023-03-17T12:46:50.254Z,17.80
2023-03-17T12:49:37.371Z,18.98
2023-03-17T12:52:43.948Z,20.63
2023-03-17T12:55:17.283Z,21.38
2023-03-17T12:57:48.453Z,22.58
2023-03-17T13:00:25.506Z,26.80
2023-03-17T13:03:22.313Z,24.33
2023-03-17T13:05:55.225Z,24.23
2023-03-17T13:08:33.747Z,25.48
2023-03-17T13:11:29.688Z,27.52
2023-03-17T13:14:13.280Z,29.10
2023-03-17T13:16:46.922Z,30.27
2023-03-17T13:19:20.337Z,29.10
2023-03-17T13:21:51.076Z,28.05
2023-03-17T13:24:22.674Z,24.42
2023-03-17T13:26:55.061Z,23.85
2023-03-17T13:29:32.791Z,28.00
2023-03-17T13:32:21.900Z,22.92
2023-03-17T13:34:55.729Z,27.73
2023-03-17T13:37:31.265Z,26.15
2023-03-17T13:40:35.367Z,30.45
2023-03-17T13:43:21.378Z,33.13
2023-03-17T13:45:49.781Z,31.85
2023-03-17T13:48:33.726Z,29.98
2023-03-17T13:51:18.720Z,27.77
2023-03-17T13:53:56.997Z,30.35
2023-03-17T13:56:47.984Z,30.77
2023-03-17T13:59:33.089Z,28.88
2023-03-17T14:02:12.385Z,32.33
2023-03-17T14:04:52.712Z,26.45
2023-03-17T14:07:24.680Z,26.75
2023-03-17T14:09:59.029Z,31.77
2023-03-17T14:12:46.882Z,29.50
2023-03-17T14:15:28.201Z,28.13
2023-03-17T14:18:03.198Z,32.08
2023-03-17T14:20:31.221Z,27.17
2023-03-17T14:23:01.820Z,24.70
2023-03-17T14:25:38.564Z,26.27
2023-03-17T14:28:11.192Z,30.50
2023-03-17T14:30:39.414Z,27.38
2023-03-17T14:33:26.630Z,24.25
2023-03-17T14:36:00.837Z,28.10
2023-03-17T14:38:37.362Z,28.13
2023-03-17T14:41:06.088Z,27.02
2023-03-17T14:43:35.481Z,29.17
2023-03-17T14:46:05.827Z,20.58
2023-03-17T14:48:36.966Z,23.20
2023-03-17T14:51:24.749Z,24.65
2023-03-17T14:53:54.326Z,25.27
2023-03-17T14:56:42.564Z,21.95
2023-03-17T14:59:25.449Z,20.67
2023-03-17T15:01:58.258Z,17.52
2023-03-17T15:04:29.828Z,20.02
2023-03-17T15:07:02.832Z,15.63
2023-03-17T15:09:33.807Z,23.52
2023-03-17T15:12:17.992Z,18.88
2023-03-17T15:14:47.070Z,18.15
2023-03-17T15:17:19.147Z,24.95
2023-03-17T15:20:00.106Z,17.67
2023-03-17T15:22:42.071Z,20.60
2023-03-17T15:25:31.504Z,14.18
2023-03-17T15:27:59.271Z,13.55
2023-03-17T15:30:37.457Z,15.90
2023-03-17T15:33:30.611Z,15.52
2023-03-17T15:36:00.342Z,10.05
2023-03-17T15:38:29.710Z,11.52
2023-03-17T15:40:58.062Z,13.35
2023-03-17T15:43:27.595Z,11.68
2023-03-17T15:45:59.932Z,13.63
2023-03-17T15:48:31.978Z,14.77
2023-03-17T15:51:01.528Z,17.02
2023-03-17T15:53:32.228Z,13.32
2023-03-17T15:56:00.468Z,12.70
2023-03-17T15:58:28.465Z,11.75
2023-03-17T16:01:00.010Z,15.48
2023-03-17T16:03:37.146Z,15.10
2023-03-17T16:06:13.795Z,13.43
2023-03-17T16:08:42.355Z,16.90
2023-03-17T16:11:28.373Z,13.85
2023-03-17T16:14:02.236Z,17.45
2023-03-17T16:16:36.550Z,20.70
2023-03-17T16:19:05.918Z,20.25
2023-03-17T16:21:36.244Z,15.48
2023-03-17T16:24:03.861Z,17.15
2023-03-17T16:26:31.689Z,16.50
2023-03-17T16:29:01.998Z,22.05
2023-03-17T16:31:30.754Z,27.77
2023-03-17T16:33:58.349Z,25.85
2023-03-17T16:36:26.316Z,29.45
2023-03-17T16:38:54.039Z,25.00
2023-03-17T16:41:24.310Z,26.23
2023-03-17T16:44:01.307Z,29.40
2023-03-17T16:46:35.154Z,35.58
2023-03-17T16:49:07.206Z,37.45
2023-03-17T16:51:34.749Z,38.33
2023-03-17T16:54:03.223Z,33.95
2023-03-17T16:56:31.683Z,48.45
2023-03-17T16:58:59.881Z,36.13
2023-03-17T17:01:29.243Z,36.97
2023-03-17T17:03:57.254Z,31.77
2023-03-17T17:06:26.959Z,31.77
2023-03-17T17:08:54.521Z,34.60
2023-03-17T17:11:22.131Z,26.92
2023-03-17T17:13:51.817Z,34.10
2023-03-17T17:16:19.479Z,36.80
2023-03-17T17:18:47.447Z,28.60
2023-03-17T17:21:15.220Z,32.55
2023-03-17T17:23:42.957Z,33.20
2023-03-17T17:26:12.877Z,39.55
2023-03-17T17:28:40.496Z,39.25
2023-03-17T17:31:08.955Z,35.80
2023-03-17T17:33:37.336Z,34.78
2023-03-17T17:36:07.612Z,33.70
2023-03-17T17:38:35.150Z,34.00
2023-03-17T17:41:05.610Z,39.03
2023-03-17T17:43:33.849Z,40.85
2023-03-17T17:46:02.597Z,44.90
2023-03-17T17:48:32.155Z,35.47
2023-03-17T17:50:59.725Z,41.85
2023-03-17T17:53:28.103Z,36.30
2023-03-17T17:55:56.263Z,40.63
2023-03-17T17:58:26.602Z,40.70
2023-03-17T18:00:57.246Z,44.38
2023-03-17T18:03:26.694Z,47.92
2023-03-17T18:05:56.476Z,42.97
2023-03-17T18:08:25.684Z,42.53
2023-03-17T18:10:59.991Z,44.67
2023-03-17T18:13:28.439Z,50.92
2023-03-17T18:15:56.408Z,44.75
2023-03-17T18:18:25.402Z,40.97
2023-03-17T18:20:54.339Z,40.78
2023-03-17T18:23:23.127Z,47.55
2023-03-17T18:25:52.082Z,50.43
2023-03-17T18:28:19.882Z,47.38
2023-03-17T18:30:47.845Z,34.17
2023-03-17T18:33:19.757Z,50.65
2023-03-17T18:35:49.727Z,56.75
2023-03-17T18:38:18.002Z,40.13
2023-03-17T18:40:45.860Z,49.17
2023-03-17T18:43:13.794Z,54.05
2023-03-17T18:45:42.637Z,44.05
2023-03-17T18:48:10.364Z,48.33
2023-03-17T18:50:38.790Z,46.63
2023-03-17T18:53:07.309Z,46.10
2023-03-17T18:55:41.237Z,61.80
2023-03-17T18:58:08.759Z,49.83
2023-03-17T19:00:36.495Z,47.47
2023-03-17T19:03:04.194Z,56.25
2023-03-17T19:05:37.584Z,48.95
2023-03-17T19:08:07.696Z,48.70
2023-03-17T19:10:37.074Z,45.35
2023-03-17T19:13:05.209Z,49.55
2023-03-17T19:15:36.792Z,50.83
2023-03-17T19:18:05.665Z,49.97
2023-03-17T19:20:34.568Z,49.33
2023-03-17T19:23:04.528Z,48.17
2023-03-17T19:25:32.533Z,52.88
2023-03-17T19:28:00.188Z,44.88
2023-03-17T19:30:29.423Z,48.35
2023-03-17T19:32:57.653Z,44.15
2023-03-17T19:35:25.936Z,53.42
2023-03-17T19:37:53.444Z,47.00
2023-03-17T19:40:22.426Z,45.97
2023-03-17T19:42:51.498Z,44.33
2023-03-17T19:45:19.510Z,44.38
2023-03-17T19:47:50.405Z,44.72
2023-03-17T19:50:17.928Z,42.67
2023-03-17T19:52:46.292Z,43.65
2023-03-17T19:55:13.848Z,46.15
2023-03-17T19:57:42.038Z,42.67
2023-03-17T20:00:11.097Z,37.00
2023-03-17T20:02:39.733Z,42.17
2023-03-17T20:05:08.542Z,36.83
2023-03-17T20:07:37.309Z,36.38
2023-03-17T20:10:07.111Z,34.50
2023-03-17T20:12:39.593Z,35.40
2023-03-17T20:15:09.118Z,38.25
2023-03-17T20:17:36.910Z,32.67
2023-03-17T20:20:12.314Z,34.95
2023-03-17T20:22:43.803Z,33.53
2023-03-17T20:25:12.415Z,30.27
2023-03-17T20:27:42.539Z,32.67
2023-03-17T20:30:12.411Z,30.75
2023-03-17T20:32:40.115Z,29.85
2023-03-17T20:35:08.773Z,42.17
2023-03-17T20:37:37.346Z,46.25
2023-03-17T20:40:13.850Z,42.08
2023-03-17T20:42:42.970Z,47.45
2023-03-17T20:45:10.563Z,39.40
2023-03-17T20:47:38.142Z,35.80
2023-03-17T20:50:08.670Z,40.83
2023-03-17T20:52:37.293Z,44.17
2023-03-17T20:55:06.220Z,39.72
2023-03-17T20:57:36.448Z,40.75
2023-03-17T21:00:04.872Z,37.58
2023-03-17T21:05:01.845Z,37.28
2023-03-17T21:07:30.511Z,36.20
2023-03-17T21:09:59.615Z,41.17
2023-03-17T21:12:32.906Z,42.17
2023-03-17T21:15:00.849Z,39.10
2023-03-17T21:17:28.782Z,38.25
2023-03-17T21:19:57.057Z,42.83
2023-03-17T21:22:24.772Z,39.28
2023-03-17T21:24:53.216Z,43.75
2023-03-17T21:27:21.528Z,41.65
2023-03-17T21:29:49.318Z,43.97
2023-03-17T21:32:16.870Z,42.13
2023-03-17T21:34:45.130Z,40.22
2023-03-17T21:37:13.013Z,41.33
2023-03-17T21:39:41.208Z,44.22
2023-03-17T21:42:09.781Z,45.75
2023-03-17T21:44:38.479Z,45.45
2023-03-17T21:47:06.109Z,45.22
2023-03-17T21:49:33.670Z,47.42
2023-03-17T21:52:01.853Z,43.45
2023-03-17T21:54:30.506Z,40.33
2023-03-17T21:57:05.626Z,40.60
2023-03-17T21:59:35.777Z,43.50
2023-03-17T22:02:03.712Z,36.95
2023-03-17T22:04:32.490Z,30.98
2023-03-17T22:07:00.126Z,31.20
2023-03-17T22:09:29.338Z,40.00
2023-03-17T22:11:57.655Z,31.90
2023-03-17T22:14:25.672Z,32.17
2023-03-17T22:16:53.445Z,44.88
2023-03-17T22:19:21.557Z,40.42
2023-03-17T22:21:49.863Z,42.70
2023-03-17T22:24:18.183Z,35.40
2023-03-17T22:26:46.630Z,32.92
2023-03-17T22:29:15.148Z,39.33
2023-03-17T22:31:42.872Z,39.03
2023-03-17T22:34:10.393Z,32.80
2023-03-17T22:36:39.096Z,36.53
2023-03-17T22:39:10.564Z,29.85
2023-03-17T22:41:39.204Z,34.83
2023-03-17T22:44:09.155Z,35.05
2023-03-17T22:46:38.581Z,32.65
2023-03-17T22:49:07.967Z,34.58
2023-03-17T22:51:36.636Z,36.33
2023-03-17T22:54:12.317Z,41.03
2023-03-17T22:56:41.089Z,45.20
2023-03-17T22:59:08.868Z,43.13
2023-03-17T23:01:36.795Z,41.35
2023-03-17T23:04:04.343Z,42.38
2023-03-17T23:06:32.708Z,44.55
2023-03-17T23:09:00.268Z,39.22
2023-03-17T23:11:28.157Z,44.30
2023-03-17T23:14:00.825Z,40.78
2023-03-17T23:16:28.657Z,32.70
2023-03-17T23:18:58.274Z,25.95
2023-03-17T23:21:36.809Z,29.80
2023-03-17T23:24:07.742Z,33.70
2023-03-17T23:26:37.141Z,31.38
2023-03-17T23:29:07.018Z,29.02
2023-03-17T23:31:38.405Z,38.70
2023-03-17T23:34:07.500Z,29.70
2023-03-17T23:36:40.056Z,27.08
2023-03-17T23:39:08.661Z,25.95
2023-03-17T23:41:37.790Z,29.85
2023-03-17T23:44:06.620Z,29.73
2023-03-17T23:46:34.537Z,28.52
2023-03-17T23:49:02.854Z,29.13
2023-03-17T23:51:30.452Z,27.33
2023-03-17T23:53:59.169Z,25.42
2023-03-17T23:56:29.197Z,27.70
2023-03-17T23:58:56.965Z,29.90
